sensor_id;sensor_type;location;lat;lon;timestamp;P1;durP1;ratioP1;P2;durP2;ratioP2
12968;SDS011;6549;53.128;8.182;2023-04-23T00:00:21;38.70;;;25.13;;
12968;SDS011;6549;53.128;8.182;2023-04-23T00:03:22;38.45;;;25.42;;
12968;SDS011;6549;53.128;8.182;2023-04-23T00:06:24;37.28;;;24.88;;
12968;SDS011;6549;53.128;8.182;2023-04-23T00:09:25;37.83;;;23.63;;
12968;SDS011;6549;53.128;8.182;2023-04-23T00:12:29;33.45;;;22.95;;
12968;SDS011;6549;53.128;8.182;2023-04-23T00:15:29;37.47;;;25.02;;
12968;SDS011;6549;53.128;8.182;2023-04-23T00:18:30;41.05;;;25.15;;
12968;SDS011;6549;53.128;8.182;2023-04-23T00:21:30;33.35;;;24.25;;
12968;SDS011;6549;53.128;8.182;2023-04-23T00:24:31;36.25;;;23.92;;
12968;SDS011;6549;53.128;8.182;2023-04-23T00:27:33;32.97;;;21.42;;
12968;SDS011;6549;53.128;8.182;2023-04-23T00:30:33;37.30;;;24.08;;
12968;SDS011;6549;53.128;8.182;2023-04-23T00:33:34;33.75;;;22.45;;
12968;SDS011;6549;53.128;8.182;2023-04-23T00:36:34;38.13;;;23.67;;
12968;SDS011;6549;53.128;8.182;2023-04-23T00:39:34;36.92;;;23.38;;
12968;SDS011;6549;53.128;8.182;2023-04-23T00:42:37;36.38;;;22.85;;
12968;SDS011;6549;53.128;8.182;2023-04-23T00:45:38;35.30;;;22.15;;
12968;SDS011;6549;53.128;8.182;2023-04-23T00:48:39;34.13;;;21.48;;
12968;SDS011;6549;53.128;8.182;2023-04-23T00:51:40;34.97;;;23.48;;
12968;SDS011;6549;53.128;8.182;2023-04-23T00:54:41;31.80;;;21.02;;
12968;SDS011;6549;53.128;8.182;2023-04-23T00:57:41;28.38;;;20.38;;
12968;SDS011;6549;53.128;8.182;2023-04-23T01:00:43;29.67;;;19.60;;
12968;SDS011;6549;53.128;8.182;2023-04-23T01:03:50;31.33;;;21.60;;
12968;SDS011;6549;53.128;8.182;2023-04-23T01:06:52;32.15;;;20.17;;
12968;SDS011;6549;53.128;8.182;2023-04-23T01:09:53;33.25;;;20.98;;
12968;SDS011;6549;53.128;8.182;2023-04-23T01:12:53;32.05;;;21.30;;
12968;SDS011;6549;53.128;8.182;2023-04-23T01:15:57;32.03;;;20.00;;
12968;SDS011;6549;53.128;8.182;2023-04-23T01:18:57;30.25;;;20.08;;
12968;SDS011;6549;53.128;8.182;2023-04-23T01:21:59;27.98;;;19.40;;
12968;SDS011;6549;53.128;8.182;2023-04-23T01:25:00;32.03;;;20.50;;
12968;SDS011;6549;53.128;8.182;2023-04-23T01:28:02;31.55;;;19.15;;
12968;SDS011;6549;53.128;8.182;2023-04-23T01:31:03;34.50;;;22.60;;
12968;SDS011;6549;53.128;8.182;2023-04-23T01:34:04;33.55;;;21.55;;
12968;SDS011;6549;53.128;8.182;2023-04-23T01:37:05;29.13;;;19.15;;
12968;SDS011;6549;53.128;8.182;2023-04-23T01:40:06;28.98;;;18.67;;
12968;SDS011;6549;53.128;8.182;2023-04-23T01:43:08;29.20;;;19.58;;
12968;SDS011;6549;53.128;8.182;2023-04-23T01:46:08;27.05;;;18.80;;
12968;SDS011;6549;53.128;8.182;2023-04-23T01:49:09;30.92;;;18.35;;
12968;SDS011;6549;53.128;8.182;2023-04-23T01:52:10;26.25;;;17.65;;
12968;SDS011;6549;53.128;8.182;2023-04-23T01:55:10;27.27;;;18.30;;
12968;SDS011;6549;53.128;8.182;2023-04-23T01:58:10;28.17;;;18.50;;
12968;SDS011;6549;53.128;8.182;2023-04-23T02:01:11;27.35;;;18.15;;
12968;SDS011;6549;53.128;8.182;2023-04-23T02:04:12;27.67;;;18.45;;
12968;SDS011;6549;53.128;8.182;2023-04-23T02:07:13;25.97;;;17.60;;
12968;SDS011;6549;53.128;8.182;2023-04-23T02:10:14;26.70;;;17.92;;
12968;SDS011;6549;53.128;8.182;2023-04-23T02:13:15;24.77;;;17.27;;
12968;SDS011;6549;53.128;8.182;2023-04-23T02:16:15;24.73;;;17.23;;
12968;SDS011;6549;53.128;8.182;2023-04-23T02:19:15;24.65;;;16.48;;
12968;SDS011;6549;53.128;8.182;2023-04-23T02:22:16;25.35;;;17.40;;
12968;SDS011;6549;53.128;8.182;2023-04-23T02:25:17;25.95;;;18.10;;
12968;SDS011;6549;53.128;8.182;2023-04-23T02:28:17;21.45;;;14.48;;
12968;SDS011;6549;53.128;8.182;2023-04-23T02:31:18;21.80;;;14.65;;
12968;SDS011;6549;53.128;8.182;2023-04-23T02:34:19;19.00;;;13.35;;
12968;SDS011;6549;53.128;8.182;2023-04-23T02:37:19;27.17;;;18.15;;
12968;SDS011;6549;53.128;8.182;2023-04-23T02:40:20;23.77;;;15.65;;
12968;SDS011;6549;53.128;8.182;2023-04-23T02:43:20;23.83;;;16.10;;
12968;SDS011;6549;53.128;8.182;2023-04-23T02:46:21;27.60;;;18.55;;
12968;SDS011;6549;53.128;8.182;2023-04-23T02:49:21;28.73;;;17.95;;
12968;SDS011;6549;53.128;8.182;2023-04-23T02:52:21;27.42;;;18.35;;
12968;SDS011;6549;53.128;8.182;2023-04-23T02:55:22;25.80;;;17.65;;
12968;SDS011;6549;53.128;8.182;2023-04-23T02:58:24;27.50;;;18.05;;
12968;SDS011;6549;53.128;8.182;2023-04-23T03:01:24;26.83;;;17.10;;
12968;SDS011;6549;53.128;8.182;2023-04-23T03:04:24;26.67;;;17.83;;
12968;SDS011;6549;53.128;8.182;2023-04-23T03:07:25;28.38;;;18.00;;
12968;SDS011;6549;53.128;8.182;2023-04-23T03:10:25;29.25;;;19.38;;
12968;SDS011;6549;53.128;8.182;2023-04-23T03:13:25;29.48;;;18.42;;
12968;SDS011;6549;53.128;8.182;2023-04-23T03:16:26;27.23;;;18.55;;
12968;SDS011;6549;53.128;8.182;2023-04-23T03:19:27;35.33;;;22.23;;
12968;SDS011;6549;53.128;8.182;2023-04-23T03:22:28;29.88;;;19.23;;
12968;SDS011;6549;53.128;8.182;2023-04-23T03:25:28;31.77;;;20.15;;
12968;SDS011;6549;53.128;8.182;2023-04-23T03:28:29;30.55;;;19.92;;
12968;SDS011;6549;53.128;8.182;2023-04-23T03:31:30;31.40;;;19.58;;
12968;SDS011;6549;53.128;8.182;2023-04-23T03:34:30;30.27;;;19.88;;
12968;SDS011;6549;53.128;8.182;2023-04-23T03:37:30;29.00;;;19.83;;
12968;SDS011;6549;53.128;8.182;2023-04-23T03:40:31;29.10;;;18.90;;
12968;SDS011;6549;53.128;8.182;2023-04-23T03:43:31;29.77;;;20.00;;
12968;SDS011;6549;53.128;8.182;2023-04-23T03:46:31;28.63;;;19.42;;
12968;SDS011;6549;53.128;8.182;2023-04-23T03:49:31;27.95;;;18.52;;
12968;SDS011;6549;53.128;8.182;2023-04-23T03:52:32;30.38;;;19.30;;
12968;SDS011;6549;53.128;8.182;2023-04-23T03:55:32;28.55;;;19.10;;
12968;SDS011;6549;53.128;8.182;2023-04-23T03:58:33;26.85;;;18.67;;
12968;SDS011;6549;53.128;8.182;2023-04-23T04:01:33;27.48;;;18.45;;
12968;SDS011;6549;53.128;8.182;2023-04-23T04:04:35;25.90;;;18.23;;
12968;SDS011;6549;53.128;8.182;2023-04-23T04:07:35;36.20;;;22.85;;
12968;SDS011;6549;53.128;8.182;2023-04-23T04:10:36;31.83;;;20.88;;
12968;SDS011;6549;53.128;8.182;2023-04-23T04:13:36;30.05;;;20.27;;
12968;SDS011;6549;53.128;8.182;2023-04-23T04:16:36;30.08;;;18.90;;
12968;SDS011;6549;53.128;8.182;2023-04-23T04:19:37;32.08;;;21.70;;
12968;SDS011;6549;53.128;8.182;2023-04-23T04:22:37;28.33;;;19.95;;
12968;SDS011;6549;53.128;8.182;2023-04-23T04:25:38;29.55;;;19.00;;
12968;SDS011;6549;53.128;8.182;2023-04-23T04:28:38;27.77;;;19.00;;
12968;SDS011;6549;53.128;8.182;2023-04-23T04:31:39;26.48;;;17.63;;
12968;SDS011;6549;53.128;8.182;2023-04-23T04:34:39;31.45;;;20.58;;
12968;SDS011;6549;53.128;8.182;2023-04-23T04:37:39;29.85;;;19.77;;
12968;SDS011;6549;53.128;8.182;2023-04-23T04:40:41;27.15;;;18.10;;
12968;SDS011;6549;53.128;8.182;2023-04-23T04:43:41;32.10;;;20.75;;
12968;SDS011;6549;53.128;8.182;2023-04-23T04:46:42;32.70;;;22.63;;
12968;SDS011;6549;53.128;8.182;2023-04-23T04:49:43;33.60;;;21.33;;
12968;SDS011;6549;53.128;8.182;2023-04-23T04:52:43;33.33;;;21.75;;
12968;SDS011;6549;53.128;8.182;2023-04-23T04:55:44;35.83;;;23.23;;
12968;SDS011;6549;53.128;8.182;2023-04-23T04:58:44;33.92;;;21.50;;
12968;SDS011;6549;53.128;8.182;2023-04-23T05:01:45;36.15;;;22.10;;
12968;SDS011;6549;53.128;8.182;2023-04-23T05:04:45;31.33;;;21.13;;
12968;SDS011;6549;53.128;8.182;2023-04-23T05:07:45;36.38;;;21.52;;
12968;SDS011;6549;53.128;8.182;2023-04-23T05:10:46;30.85;;;19.40;;
12968;SDS011;6549;53.128;8.182;2023-04-23T05:13:46;43.35;;;26.38;;
12968;SDS011;6549;53.128;8.182;2023-04-23T05:16:47;35.53;;;22.95;;
12968;SDS011;6549;53.128;8.182;2023-04-23T05:19:47;32.72;;;20.58;;
12968;SDS011;6549;53.128;8.182;2023-04-23T05:22:48;31.13;;;20.20;;
12968;SDS011;6549;53.128;8.182;2023-04-23T05:25:48;31.92;;;20.58;;
12968;SDS011;6549;53.128;8.182;2023-04-23T05:28:50;34.28;;;21.08;;
12968;SDS011;6549;53.128;8.182;2023-04-23T05:31:51;41.10;;;25.52;;
12968;SDS011;6549;53.128;8.182;2023-04-23T05:34:51;35.25;;;22.10;;
12968;SDS011;6549;53.128;8.182;2023-04-23T05:37:51;38.13;;;24.73;;
12968;SDS011;6549;53.128;8.182;2023-04-23T05:40:52;42.15;;;25.98;;
12968;SDS011;6549;53.128;8.182;2023-04-23T05:43:52;39.45;;;24.60;;
12968;SDS011;6549;53.128;8.182;2023-04-23T05:46:52;35.75;;;23.65;;
12968;SDS011;6549;53.128;8.182;2023-04-23T05:49:53;40.30;;;24.70;;
12968;SDS011;6549;53.128;8.182;2023-04-23T05:52:53;40.95;;;24.83;;
12968;SDS011;6549;53.128;8.182;2023-04-23T05:55:53;41.97;;;26.27;;
12968;SDS011;6549;53.128;8.182;2023-04-23T05:58:54;39.55;;;25.13;;
12968;SDS011;6549;53.128;8.182;2023-04-23T06:01:54;44.78;;;27.05;;
12968;SDS011;6549;53.128;8.182;2023-04-23T06:04:54;41.25;;;25.63;;
12968;SDS011;6549;53.128;8.182;2023-04-23T06:07:55;44.40;;;28.20;;
12968;SDS011;6549;53.128;8.182;2023-04-23T06:10:55;52.65;;;31.70;;
12968;SDS011;6549;53.128;8.182;2023-04-23T06:13:55;57.15;;;33.15;;
12968;SDS011;6549;53.128;8.182;2023-04-23T06:16:56;54.67;;;32.58;;
12968;SDS011;6549;53.128;8.182;2023-04-23T06:19:56;56.00;;;32.33;;
12968;SDS011;6549;53.128;8.182;2023-04-23T06:22:56;61.95;;;33.75;;
12968;SDS011;6549;53.128;8.182;2023-04-23T06:25:57;59.20;;;34.67;;
12968;SDS011;6549;53.128;8.182;2023-04-23T06:28:57;66.22;;;37.55;;
12968;SDS011;6549;53.128;8.182;2023-04-23T06:32:00;58.83;;;33.08;;
12968;SDS011;6549;53.128;8.182;2023-04-23T06:35:01;54.30;;;32.63;;
12968;SDS011;6549;53.128;8.182;2023-04-23T06:38:03;55.67;;;34.30;;
12968;SDS011;6549;53.128;8.182;2023-04-23T06:41:03;61.05;;;36.60;;
12968;SDS011;6549;53.128;8.182;2023-04-23T06:44:04;59.08;;;36.03;;
12968;SDS011;6549;53.128;8.182;2023-04-23T06:47:05;57.70;;;35.33;;
12968;SDS011;6549;53.128;8.182;2023-04-23T06:50:05;62.05;;;37.58;;
12968;SDS011;6549;53.128;8.182;2023-04-23T06:53:07;63.97;;;37.33;;
12968;SDS011;6549;53.128;8.182;2023-04-23T06:56:07;63.22;;;39.20;;
12968;SDS011;6549;53.128;8.182;2023-04-23T06:59:07;68.93;;;43.55;;
12968;SDS011;6549;53.128;8.182;2023-04-23T07:02:08;69.15;;;42.65;;
12968;SDS011;6549;53.128;8.182;2023-04-23T07:05:08;72.82;;;44.40;;
12968;SDS011;6549;53.128;8.182;2023-04-23T07:08:09;71.65;;;44.80;;
12968;SDS011;6549;53.128;8.182;2023-04-23T07:11:09;73.90;;;44.55;;
12968;SDS011;6549;53.128;8.182;2023-04-23T07:14:10;75.47;;;46.22;;
12968;SDS011;6549;53.128;8.182;2023-04-23T07:17:10;78.75;;;47.92;;
12968;SDS011;6549;53.128;8.182;2023-04-23T07:20:11;71.25;;;45.42;;
12968;SDS011;6549;53.128;8.182;2023-04-23T07:23:11;72.28;;;46.58;;
12968;SDS011;6549;53.128;8.182;2023-04-23T07:26:11;75.63;;;47.22;;
12968;SDS011;6549;53.128;8.182;2023-04-23T07:29:12;76.32;;;47.95;;
12968;SDS011;6549;53.128;8.182;2023-04-23T07:32:13;75.00;;;47.22;;
12968;SDS011;6549;53.128;8.182;2023-04-23T07:35:13;74.55;;;46.00;;
12968;SDS011;6549;53.128;8.182;2023-04-23T07:38:13;71.90;;;45.38;;
12968;SDS011;6549;53.128;8.182;2023-04-23T07:41:14;69.90;;;44.85;;
12968;SDS011;6549;53.128;8.182;2023-04-23T07:44:14;74.57;;;46.05;;
12968;SDS011;6549;53.128;8.182;2023-04-23T07:47:14;73.03;;;47.33;;
12968;SDS011;6549;53.128;8.182;2023-04-23T07:50:15;70.55;;;44.40;;
12968;SDS011;6549;53.128;8.182;2023-04-23T07:53:15;66.75;;;42.45;;
12968;SDS011;6549;53.128;8.182;2023-04-23T07:56:16;61.67;;;39.67;;
12968;SDS011;6549;53.128;8.182;2023-04-23T07:59:16;57.75;;;36.53;;
12968;SDS011;6549;53.128;8.182;2023-04-23T08:02:16;55.25;;;36.75;;
12968;SDS011;6549;53.128;8.182;2023-04-23T08:05:17;52.13;;;34.72;;
12968;SDS011;6549;53.128;8.182;2023-04-23T08:08:17;52.13;;;33.08;;
12968;SDS011;6549;53.128;8.182;2023-04-23T08:11:18;52.55;;;33.83;;
12968;SDS011;6549;53.128;8.182;2023-04-23T08:14:18;49.42;;;34.17;;
12968;SDS011;6549;53.128;8.182;2023-04-23T08:17:18;45.95;;;31.42;;
12968;SDS011;6549;53.128;8.182;2023-04-23T08:20:19;42.95;;;30.20;;
12968;SDS011;6549;53.128;8.182;2023-04-23T08:23:19;37.97;;;27.30;;
12968;SDS011;6549;53.128;8.182;2023-04-23T08:26:19;38.65;;;28.05;;
12968;SDS011;6549;53.128;8.182;2023-04-23T08:29:20;38.88;;;28.83;;
12968;SDS011;6549;53.128;8.182;2023-04-23T08:32:20;37.03;;;25.38;;
12968;SDS011;6549;53.128;8.182;2023-04-23T08:35:21;37.45;;;26.60;;
12968;SDS011;6549;53.128;8.182;2023-04-23T08:38:21;40.55;;;27.45;;
12968;SDS011;6549;53.128;8.182;2023-04-23T08:41:22;38.03;;;27.20;;
12968;SDS011;6549;53.128;8.182;2023-04-23T08:44:26;36.42;;;25.65;;
12968;SDS011;6549;53.128;8.182;2023-04-23T08:47:28;33.40;;;23.20;;
12968;SDS011;6549;53.128;8.182;2023-04-23T08:50:29;30.50;;;21.23;;
12968;SDS011;6549;53.128;8.182;2023-04-23T08:53:30;26.30;;;19.73;;
12968;SDS011;6549;53.128;8.182;2023-04-23T08:56:31;27.58;;;20.13;;
12968;SDS011;6549;53.128;8.182;2023-04-23T08:59:32;25.83;;;19.58;;
12968;SDS011;6549;53.128;8.182;2023-04-23T09:02:33;24.30;;;18.85;;
12968;SDS011;6549;53.128;8.182;2023-04-23T09:05:33;26.15;;;19.90;;
12968;SDS011;6549;53.128;8.182;2023-04-23T09:08:34;26.50;;;19.08;;
12968;SDS011;6549;53.128;8.182;2023-04-23T09:11:35;26.50;;;19.08;;
12968;SDS011;6549;53.128;8.182;2023-04-23T09:14:36;22.30;;;17.08;;
12968;SDS011;6549;53.128;8.182;2023-04-23T09:17:38;21.45;;;16.67;;
12968;SDS011;6549;53.128;8.182;2023-04-23T09:20:40;20.08;;;15.23;;
12968;SDS011;6549;53.128;8.182;2023-04-23T09:23:40;21.45;;;16.05;;
12968;SDS011;6549;53.128;8.182;2023-04-23T09:26:45;18.08;;;14.23;;
12968;SDS011;6549;53.128;8.182;2023-04-23T09:29:47;21.23;;;16.23;;
12968;SDS011;6549;53.128;8.182;2023-04-23T09:32:52;20.85;;;15.82;;
12968;SDS011;6549;53.128;8.182;2023-04-23T09:35:52;22.45;;;15.95;;
12968;SDS011;6549;53.128;8.182;2023-04-23T09:38:57;20.00;;;15.75;;
12968;SDS011;6549;53.128;8.182;2023-04-23T09:42:01;19.20;;;14.73;;
12968;SDS011;6549;53.128;8.182;2023-04-23T09:45:06;22.52;;;16.08;;
12968;SDS011;6549;53.128;8.182;2023-04-23T09:48:10;20.83;;;16.13;;
12968;SDS011;6549;53.128;8.182;2023-04-23T09:51:12;19.15;;;14.75;;
12968;SDS011;6549;53.128;8.182;2023-04-23T09:54:18;20.50;;;16.25;;
12968;SDS011;6549;53.128;8.182;2023-04-23T09:57:21;22.38;;;17.17;;
12968;SDS011;6549;53.128;8.182;2023-04-23T10:00:23;23.27;;;17.88;;
12968;SDS011;6549;53.128;8.182;2023-04-23T10:03:28;21.40;;;15.52;;
12968;SDS011;6549;53.128;8.182;2023-04-23T10:06:29;23.88;;;18.00;;
12968;SDS011;6549;53.128;8.182;2023-04-23T10:09:30;23.55;;;16.98;;
12968;SDS011;6549;53.128;8.182;2023-04-23T10:12:30;22.75;;;17.52;;
12968;SDS011;6549;53.128;8.182;2023-04-23T10:15:31;20.13;;;16.35;;
12968;SDS011;6549;53.128;8.182;2023-04-23T10:18:33;22.95;;;18.27;;
12968;SDS011;6549;53.128;8.182;2023-04-23T10:21:36;23.17;;;17.33;;
12968;SDS011;6549;53.128;8.182;2023-04-23T10:24:38;25.17;;;18.38;;
12968;SDS011;6549;53.128;8.182;2023-04-23T10:27:41;23.33;;;17.88;;
12968;SDS011;6549;53.128;8.182;2023-04-23T10:30:43;23.50;;;17.92;;
12968;SDS011;6549;53.128;8.182;2023-04-23T10:33:43;24.95;;;19.33;;
12968;SDS011;6549;53.128;8.182;2023-04-23T10:36:46;25.58;;;19.58;;
12968;SDS011;6549;53.128;8.182;2023-04-23T10:39:49;21.60;;;17.55;;
12968;SDS011;6549;53.128;8.182;2023-04-23T10:42:52;25.58;;;19.67;;
12968;SDS011;6549;53.128;8.182;2023-04-23T10:45:54;26.65;;;19.75;;
12968;SDS011;6549;53.128;8.182;2023-04-23T10:49:04;23.27;;;18.25;;
12968;SDS011;6549;53.128;8.182;2023-04-23T10:52:13;24.90;;;19.27;;
12968;SDS011;6549;53.128;8.182;2023-04-23T10:55:15;23.92;;;17.83;;
12968;SDS011;6549;53.128;8.182;2023-04-23T10:58:18;23.40;;;18.95;;
12968;SDS011;6549;53.128;8.182;2023-04-23T11:01:22;21.88;;;16.73;;
12968;SDS011;6549;53.128;8.182;2023-04-23T11:04:27;20.27;;;16.75;;
12968;SDS011;6549;53.128;8.182;2023-04-23T11:07:29;21.42;;;16.67;;
12968;SDS011;6549;53.128;8.182;2023-04-23T11:10:31;22.80;;;18.38;;
12968;SDS011;6549;53.128;8.182;2023-04-23T11:13:32;23.93;;;19.23;;
12968;SDS011;6549;53.128;8.182;2023-04-23T11:16:33;20.05;;;16.45;;
12968;SDS011;6549;53.128;8.182;2023-04-23T11:19:36;18.33;;;14.48;;
12968;SDS011;6549;53.128;8.182;2023-04-23T11:25:50;17.88;;;14.18;;
12968;SDS011;6549;53.128;8.182;2023-04-23T11:28:51;16.50;;;12.45;;
12968;SDS011;6549;53.128;8.182;2023-04-23T11:31:53;15.52;;;12.38;;
12968;SDS011;6549;53.128;8.182;2023-04-23T11:34:54;14.80;;;11.85;;
12968;SDS011;6549;53.128;8.182;2023-04-23T11:37:56;14.32;;;11.50;;
12968;SDS011;6549;53.128;8.182;2023-04-23T11:40:57;15.27;;;11.93;;
12968;SDS011;6549;53.128;8.182;2023-04-23T11:43:57;13.95;;;10.90;;
12968;SDS011;6549;53.128;8.182;2023-04-23T11:46:58;15.50;;;13.00;;
12968;SDS011;6549;53.128;8.182;2023-04-23T11:50:01;14.25;;;10.35;;
12968;SDS011;6549;53.128;8.182;2023-04-23T11:53:05;12.38;;;10.23;;
12968;SDS011;6549;53.128;8.182;2023-04-23T11:56:09;11.75;;;9.18;;
12968;SDS011;6549;53.128;8.182;2023-04-23T11:59:09;12.77;;;10.27;;
12968;SDS011;6549;53.128;8.182;2023-04-23T12:02:10;12.73;;;9.00;;
12968;SDS011;6549;53.128;8.182;2023-04-23T12:05:10;10.88;;;8.57;;
12968;SDS011;6549;53.128;8.182;2023-04-23T12:08:11;9.65;;;7.53;;
12968;SDS011;6549;53.128;8.182;2023-04-23T12:11:15;10.30;;;8.02;;
12968;SDS011;6549;53.128;8.182;2023-04-23T12:14:16;10.02;;;7.45;;
12968;SDS011;6549;53.128;8.182;2023-04-23T12:17:17;11.65;;;8.45;;
12968;SDS011;6549;53.128;8.182;2023-04-23T12:20:18;12.02;;;8.50;;
12968;SDS011;6549;53.128;8.182;2023-04-23T12:23:26;11.20;;;7.40;;
12968;SDS011;6549;53.128;8.182;2023-04-23T12:26:29;9.90;;;8.48;;
12968;SDS011;6549;53.128;8.182;2023-04-23T12:29:30;10.73;;;8.77;;
12968;SDS011;6549;53.128;8.182;2023-04-23T12:32:31;10.93;;;8.38;;
12968;SDS011;6549;53.128;8.182;2023-04-23T12:35:39;10.82;;;7.32;;
12968;SDS011;6549;53.128;8.182;2023-04-23T12:38:41;9.13;;;5.78;;
12968;SDS011;6549;53.128;8.182;2023-04-23T12:41:41;8.77;;;5.13;;
12968;SDS011;6549;53.128;8.182;2023-04-23T12:44:42;9.07;;;5.95;;
12968;SDS011;6549;53.128;8.182;2023-04-23T12:47:42;8.80;;;5.57;;
12968;SDS011;6549;53.128;8.182;2023-04-23T12:50:47;9.02;;;6.85;;
12968;SDS011;6549;53.128;8.182;2023-04-23T12:53:47;8.50;;;5.97;;
12968;SDS011;6549;53.128;8.182;2023-04-23T12:56:48;10.07;;;7.65;;
12968;SDS011;6549;53.128;8.182;2023-04-23T12:59:48;9.60;;;7.45;;
12968;SDS011;6549;53.128;8.182;2023-04-23T13:02:49;9.30;;;6.45;;
12968;SDS011;6549;53.128;8.182;2023-04-23T13:05:49;7.97;;;5.95;;
12968;SDS011;6549;53.128;8.182;2023-04-23T13:08:50;8.32;;;5.30;;
12968;SDS011;6549;53.128;8.182;2023-04-23T13:11:50;6.90;;;4.70;;
12968;SDS011;6549;53.128;8.182;2023-04-23T13:14:50;7.93;;;4.93;;
12968;SDS011;6549;53.128;8.182;2023-04-23T13:17:51;7.10;;;4.60;;
12968;SDS011;6549;53.128;8.182;2023-04-23T13:20:51;6.55;;;4.53;;
12968;SDS011;6549;53.128;8.182;2023-04-23T13:23:51;9.68;;;4.68;;
12968;SDS011;6549;53.128;8.182;2023-04-23T13:26:52;6.85;;;3.70;;
12968;SDS011;6549;53.128;8.182;2023-04-23T13:29:52;5.10;;;3.35;;
12968;SDS011;6549;53.128;8.182;2023-04-23T13:32:53;5.68;;;3.80;;
12968;SDS011;6549;53.128;8.182;2023-04-23T13:35:54;4.75;;;3.22;;
12968;SDS011;6549;53.128;8.182;2023-04-23T13:38:55;4.88;;;3.00;;
12968;SDS011;6549;53.128;8.182;2023-04-23T13:41:55;4.82;;;3.30;;
12968;SDS011;6549;53.128;8.182;2023-04-23T13:44:56;6.32;;;3.30;;
12968;SDS011;6549;53.128;8.182;2023-04-23T13:47:56;6.70;;;3.60;;
12968;SDS011;6549;53.128;8.182;2023-04-23T13:50:57;5.78;;;3.72;;
12968;SDS011;6549;53.128;8.182;2023-04-23T13:53:58;5.72;;;3.53;;
12968;SDS011;6549;53.128;8.182;2023-04-23T13:56:58;4.38;;;2.67;;
12968;SDS011;6549;53.128;8.182;2023-04-23T13:59:59;4.77;;;3.17;;
12968;SDS011;6549;53.128;8.182;2023-04-23T14:03:00;6.22;;;3.40;;
12968;SDS011;6549;53.128;8.182;2023-04-23T14:06:00;4.53;;;3.10;;
12968;SDS011;6549;53.128;8.182;2023-04-23T14:09:01;5.22;;;3.35;;
12968;SDS011;6549;53.128;8.182;2023-04-23T14:12:02;9.48;;;3.40;;
12968;SDS011;6549;53.128;8.182;2023-04-23T14:15:04;5.57;;;3.33;;
12968;SDS011;6549;53.128;8.182;2023-04-23T14:18:05;5.72;;;3.55;;
12968;SDS011;6549;53.128;8.182;2023-04-23T14:21:06;5.68;;;3.67;;
12968;SDS011;6549;53.128;8.182;2023-04-23T14:24:07;7.22;;;3.42;;
12968;SDS011;6549;53.128;8.182;2023-04-23T14:27:10;7.07;;;3.40;;
12968;SDS011;6549;53.128;8.182;2023-04-23T14:30:15;3.90;;;3.05;;
12968;SDS011;6549;53.128;8.182;2023-04-23T14:33:17;5.00;;;2.88;;
12968;SDS011;6549;53.128;8.182;2023-04-23T14:36:18;4.88;;;3.13;;
12968;SDS011;6549;53.128;8.182;2023-04-23T14:39:18;4.78;;;2.70;;
12968;SDS011;6549;53.128;8.182;2023-04-23T14:42:21;6.03;;;2.50;;
12968;SDS011;6549;53.128;8.182;2023-04-23T14:45:22;3.85;;;2.00;;
12968;SDS011;6549;53.128;8.182;2023-04-23T14:48:22;4.05;;;2.00;;
12968;SDS011;6549;53.128;8.182;2023-04-23T14:51:22;4.95;;;2.17;;
12968;SDS011;6549;53.128;8.182;2023-04-23T14:54:23;4.88;;;1.98;;
12968;SDS011;6549;53.128;8.182;2023-04-23T14:57:23;4.28;;;1.92;;
12968;SDS011;6549;53.128;8.182;2023-04-23T15:00:23;4.22;;;2.00;;
12968;SDS011;6549;53.128;8.182;2023-04-23T15:03:24;3.08;;;1.70;;
12968;SDS011;6549;53.128;8.182;2023-04-23T15:06:26;3.58;;;1.90;;
12968;SDS011;6549;53.128;8.182;2023-04-23T15:09:26;2.42;;;1.60;;
12968;SDS011;6549;53.128;8.182;2023-04-23T15:15:43;3.15;;;1.90;;
12968;SDS011;6549;53.128;8.182;2023-04-23T15:18:49;4.00;;;2.13;;
12968;SDS011;6549;53.128;8.182;2023-04-23T15:21:49;5.32;;;1.90;;
12968;SDS011;6549;53.128;8.182;2023-04-23T15:24:50;4.75;;;2.47;;
12968;SDS011;6549;53.128;8.182;2023-04-23T15:27:50;6.70;;;2.47;;
12968;SDS011;6549;53.128;8.182;2023-04-23T15:30:57;4.60;;;2.03;;
12968;SDS011;6549;53.128;8.182;2023-04-23T15:33:57;4.10;;;2.22;;
12968;SDS011;6549;53.128;8.182;2023-04-23T15:36:57;5.68;;;2.20;;
12968;SDS011;6549;53.128;8.182;2023-04-23T15:39:58;3.33;;;1.92;;
12968;SDS011;6549;53.128;8.182;2023-04-23T15:42:58;4.55;;;1.95;;
12968;SDS011;6549;53.128;8.182;2023-04-23T15:45:58;3.97;;;1.80;;
12968;SDS011;6549;53.128;8.182;2023-04-23T15:49:00;6.37;;;2.00;;
12968;SDS011;6549;53.128;8.182;2023-04-23T15:52:02;4.70;;;1.88;;
12968;SDS011;6549;53.128;8.182;2023-04-23T15:55:04;3.50;;;1.70;;
12968;SDS011;6549;53.128;8.182;2023-04-23T15:58:05;2.13;;;1.50;;
12968;SDS011;6549;53.128;8.182;2023-04-23T16:01:06;5.10;;;1.80;;
12968;SDS011;6549;53.128;8.182;2023-04-23T16:07:08;3.13;;;1.60;;
12968;SDS011;6549;53.128;8.182;2023-04-23T16:10:09;3.70;;;1.70;;
12968;SDS011;6549;53.128;8.182;2023-04-23T16:13:09;6.15;;;2.30;;
12968;SDS011;6549;53.128;8.182;2023-04-23T16:16:10;4.75;;;2.00;;
12968;SDS011;6549;53.128;8.182;2023-04-23T16:19:10;5.50;;;3.13;;
12968;SDS011;6549;53.128;8.182;2023-04-23T16:22:11;6.63;;;2.50;;
12968;SDS011;6549;53.128;8.182;2023-04-23T16:25:11;3.42;;;1.80;;
12968;SDS011;6549;53.128;8.182;2023-04-23T16:28:11;4.72;;;2.30;;
12968;SDS011;6549;53.128;8.182;2023-04-23T16:31:12;5.93;;;2.33;;
12968;SDS011;6549;53.128;8.182;2023-04-23T16:34:13;3.92;;;2.40;;
12968;SDS011;6549;53.128;8.182;2023-04-23T16:37:13;8.88;;;4.90;;
12968;SDS011;6549;53.128;8.182;2023-04-23T16:40:14;5.20;;;2.80;;
12968;SDS011;6549;53.128;8.182;2023-04-23T16:43:15;6.10;;;3.53;;
12968;SDS011;6549;53.128;8.182;2023-04-23T16:46:15;5.18;;;3.08;;
12968;SDS011;6549;53.128;8.182;2023-04-23T16:49:15;7.95;;;3.78;;
12968;SDS011;6549;53.128;8.182;2023-04-23T16:52:16;5.65;;;3.40;;
12968;SDS011;6549;53.128;8.182;2023-04-23T16:55:16;6.93;;;5.32;;
12968;SDS011;6549;53.128;8.182;2023-04-23T16:58:16;7.85;;;5.07;;
12968;SDS011;6549;53.128;8.182;2023-04-23T17:01:17;7.45;;;4.88;;
12968;SDS011;6549;53.128;8.182;2023-04-23T17:04:18;7.47;;;4.78;;
12968;SDS011;6549;53.128;8.182;2023-04-23T17:07:18;4.70;;;3.72;;
12968;SDS011;6549;53.128;8.182;2023-04-23T17:10:18;4.82;;;3.60;;
12968;SDS011;6549;53.128;8.182;2023-04-23T17:13:19;5.60;;;3.28;;
12968;SDS011;6549;53.128;8.182;2023-04-23T17:16:19;5.57;;;3.08;;
12968;SDS011;6549;53.128;8.182;2023-04-23T17:19:19;4.68;;;2.58;;
12968;SDS011;6549;53.128;8.182;2023-04-23T17:22:20;3.75;;;2.30;;
12968;SDS011;6549;53.128;8.182;2023-04-23T17:25:20;2.63;;;2.00;;
12968;SDS011;6549;53.128;8.182;2023-04-23T17:28:20;3.40;;;2.10;;
12968;SDS011;6549;53.128;8.182;2023-04-23T17:31:21;3.97;;;1.80;;
12968;SDS011;6549;53.128;8.182;2023-04-23T17:34:21;2.92;;;1.90;;
12968;SDS011;6549;53.128;8.182;2023-04-23T17:37:21;4.70;;;1.90;;
12968;SDS011;6549;53.128;8.182;2023-04-23T17:40:22;3.08;;;2.05;;
12968;SDS011;6549;53.128;8.182;2023-04-23T17:43:22;3.42;;;2.28;;
12968;SDS011;6549;53.128;8.182;2023-04-23T17:46:22;2.90;;;2.00;;
12968;SDS011;6549;53.128;8.182;2023-04-23T17:49:23;2.50;;;2.00;;
12968;SDS011;6549;53.128;8.182;2023-04-23T17:52:23;2.63;;;1.90;;
12968;SDS011;6549;53.128;8.182;2023-04-23T17:55:23;2.45;;;2.10;;
12968;SDS011;6549;53.128;8.182;2023-04-23T17:58:24;3.25;;;1.90;;
12968;SDS011;6549;53.128;8.182;2023-04-23T18:01:25;4.70;;;2.05;;
12968;SDS011;6549;53.128;8.182;2023-04-23T18:04:26;1.90;;;1.80;;
12968;SDS011;6549;53.128;8.182;2023-04-23T18:07:27;4.10;;;2.10;;
12968;SDS011;6549;53.128;8.182;2023-04-23T18:10:27;2.95;;;2.25;;
12968;SDS011;6549;53.128;8.182;2023-04-23T18:13:28;4.38;;;1.77;;